Terminal Aerodrome Forecast
Issued by NWS

Home | Current Version | Previous Version | Graphics & Text | Print | Product List | Glossary On
Versions: 1 2 3 4 5 6 7 8 9 10 11 12 13 14 15 16 17
000
FTUS43 KBIS 231100
TAFJMS
TAF
KJMS 231133Z 2312/2412 12005KT P6SM -SHRA VCTS OVC050CB
     FM231500 13009KT P6SM BKN050
     FM231800 15009KT P6SM SCT100=

USA.gov is the U.S. government's official web portal to all federal, state and local government web resources and services.